CDY3 weather

Fogo Airport
Fogo, Newfoundland and Labrador, Canada

Public forecast

Using degrees Celsius for public forecast. Weather courtesy of forecast.io.

Closest aviation weather report (METAR) to Fogo Airport

Closest report is Gander International Airport, 45.2 nm (83.6 km) SSW. Retrieved 2019/11/16 01:00 UTC (11 minutes ago):

CYQX 160100Z 16024G33KT 10SM -SHRA OVC012 03/01 A2996 RMK SC8 CVCTV CLD EMBD PRESFR SLP155

Closest aviation forecast (TAF) to Fogo Airport

Closest forecast is Gander International Airport, 45.2 nm (83.6 km) SSW. Retrieved 2019-11-16 00:39 UTC (32 minutes ago):

TAF CYQX 152338Z 1600/1624 15015G25KT P6SM -RA SCT020 BKN030 TEMPO 1600/1603 P6SM -RASN BKN020 OVC030 FM160300 18025G40KT 6SM -RA OVC020 TEMPO 1603/1609 3SM -RA BR SCT008 OVC020 BECMG 1604/1606 20025G40KT FM160900 29015G25KT 5SM -RA BR SCT006 OVC015 FM161200 29015KT 4SM -RASN BR BKN008 OVC015 FM161500 24012G22KT P6SM SCT020 BKN030 FM161800 26020G30KT P6SM -SN SCT015 OVC030 FM162200 29020G35KT P6SM SCT030 RMK NXT FCST BY 160600Z